createdAt,value
2023-04-08T00:00:09.100Z,56.81
2023-04-08T00:02:47.138Z,56.90
2023-04-08T00:05:19.846Z,56.97
2023-04-08T00:07:53.088Z,57.13
2023-04-08T00:10:26.560Z,57.09
2023-04-08T00:13:01.345Z,57.25
2023-04-08T00:15:35.206Z,56.77
2023-04-08T00:18:08.734Z,56.99
2023-04-08T00:20:41.581Z,56.17
2023-04-08T00:23:14.923Z,56.54
2023-04-08T00:25:47.499Z,56.28
2023-04-08T00:28:20.173Z,56.35
2023-04-08T00:30:54.800Z,56.73
2023-04-08T00:33:29.171Z,56.31
2023-04-08T00:36:01.648Z,56.20
2023-04-08T00:38:34.568Z,56.47
2023-04-08T00:41:07.631Z,56.30
2023-04-08T00:43:40.112Z,56.37
2023-04-08T00:46:14.382Z,56.58
2023-04-08T00:48:47.279Z,56.06
2023-04-08T00:51:20.549Z,56.76
2023-04-08T00:53:53.130Z,56.82
2023-04-08T00:56:27.894Z,57.27
2023-04-08T00:59:01.880Z,57.00
2023-04-08T01:01:46.061Z,56.87
2023-04-08T01:04:29.085Z,56.97
2023-04-08T01:07:07.108Z,56.61
2023-04-08T01:09:45.470Z,57.22
2023-04-08T01:12:23.137Z,56.80
2023-04-08T01:15:01.734Z,57.16
2023-04-08T01:17:38.901Z,57.24
2023-04-08T01:20:14.023Z,57.35
2023-04-08T01:23:01.130Z,56.91
2023-04-08T01:25:36.818Z,56.89
2023-04-08T01:28:14.631Z,57.39
2023-04-08T01:30:49.341Z,57.27
2023-04-08T01:33:23.644Z,57.23
2023-04-08T01:35:58.044Z,57.20
2023-04-08T01:38:32.364Z,57.10
2023-04-08T01:41:06.738Z,57.27
2023-04-08T01:43:44.017Z,56.56
2023-04-08T01:46:17.328Z,56.91
2023-04-08T01:48:51.690Z,56.91
2023-04-08T01:51:25.217Z,57.25
2023-04-08T01:53:58.027Z,56.45
2023-04-08T01:56:36.940Z,56.83
2023-04-08T01:59:14.904Z,56.85
2023-04-08T02:01:49.393Z,56.73
2023-04-08T02:04:22.229Z,56.96
2023-04-08T02:06:57.054Z,57.16
2023-04-08T02:09:30.049Z,56.87
2023-04-08T02:12:03.313Z,56.88
2023-04-08T02:14:37.507Z,57.19
2023-04-08T02:17:25.310Z,57.07
2023-04-08T02:20:06.546Z,56.78
2023-04-08T02:22:44.960Z,56.54
2023-04-08T02:25:23.720Z,56.42
2023-04-08T02:27:57.396Z,56.54
2023-04-08T02:30:32.999Z,56.23
2023-04-08T02:33:06.783Z,56.46
2023-04-08T02:35:41.837Z,56.44
2023-04-08T02:38:14.488Z,56.59
2023-04-08T02:40:50.544Z,56.64
2023-04-08T02:43:31.801Z,56.69
2023-04-08T02:46:06.355Z,56.93
2023-04-08T02:48:38.837Z,56.85
2023-04-08T02:51:11.984Z,56.50
2023-04-08T02:53:44.506Z,56.51
2023-04-08T02:56:17.504Z,56.50
2023-04-08T02:58:52.328Z,56.01
2023-04-08T03:01:27.101Z,56.49
2023-04-08T03:03:59.804Z,56.62
2023-04-08T03:06:32.912Z,56.59
2023-04-08T03:09:08.433Z,56.57
2023-04-08T03:11:41.054Z,56.60
2023-04-08T03:14:14.083Z,56.03
2023-04-08T03:16:48.620Z,56.12
2023-04-08T03:19:21.412Z,56.20
2023-04-08T03:21:54.051Z,56.33
2023-04-08T03:24:27.159Z,56.11
2023-04-08T03:26:59.477Z,56.09
2023-04-08T03:29:33.040Z,55.83
2023-04-08T03:32:07.343Z,56.41
2023-04-08T03:34:40.336Z,56.39
2023-04-08T03:37:13.163Z,55.95
2023-04-08T03:39:46.829Z,56.30
2023-04-08T03:42:19.408Z,55.70
2023-04-08T03:44:52.436Z,56.24
2023-04-08T03:47:26.672Z,55.52
2023-04-08T03:49:59.463Z,55.80
2023-04-08T03:52:32.164Z,56.08
2023-04-08T03:55:06.035Z,55.95
2023-04-08T03:57:38.908Z,56.24
2023-04-08T04:00:12.666Z,55.39
2023-04-08T04:02:46.635Z,55.81
2023-04-08T04:05:19.613Z,55.36
2023-04-08T04:07:52.007Z,55.62
2023-04-08T04:10:24.901Z,55.14
2023-04-08T04:12:58.026Z,54.61
2023-04-08T04:15:30.436Z,54.77
2023-04-08T04:18:04.821Z,54.25
2023-04-08T04:20:41.710Z,54.53
2023-04-08T04:23:14.895Z,53.98
2023-04-08T04:25:47.481Z,53.84
2023-04-08T04:28:20.356Z,53.79
2023-04-08T04:30:55.304Z,53.86
2023-04-08T04:33:31.187Z,53.96
2023-04-08T04:36:03.947Z,54.13
2023-04-08T04:38:37.270Z,53.46
2023-04-08T04:41:10.479Z,54.07
2023-04-08T04:43:43.617Z,53.87
2023-04-08T04:46:16.645Z,53.08
2023-04-08T04:48:51.645Z,53.41
2023-04-08T04:51:24.703Z,53.91
2023-04-08T04:53:57.476Z,53.66
2023-04-08T04:56:36.640Z,53.03
2023-04-08T04:59:09.192Z,52.97
2023-04-08T05:01:42.177Z,52.01
2023-04-08T05:04:16.685Z,52.33
2023-04-08T05:06:49.672Z,51.47
2023-04-08T05:09:22.159Z,51.51
2023-04-08T05:11:54.900Z,51.10
2023-04-08T05:14:29.881Z,50.76
2023-04-08T05:17:03.057Z,49.65
2023-04-08T05:19:37.401Z,49.76
2023-04-08T05:22:10.215Z,50.01
2023-04-08T05:24:43.114Z,48.59
2023-04-08T05:27:15.981Z,48.09
2023-04-08T05:29:48.906Z,48.02
2023-04-08T05:32:21.928Z,47.17
2023-04-08T05:34:56.175Z,46.40
2023-04-08T05:37:29.203Z,46.46
2023-04-08T05:40:02.053Z,46.60
2023-04-08T05:42:36.240Z,47.33
2023-04-08T05:45:09.349Z,46.71
2023-04-08T05:47:42.178Z,46.96
2023-04-08T05:50:22.163Z,46.91
2023-04-08T05:52:54.789Z,47.18
2023-04-08T05:55:28.066Z,46.82
2023-04-08T05:58:00.760Z,47.02
2023-04-08T06:00:33.348Z,47.21
2023-04-08T06:03:06.701Z,46.68
2023-04-08T06:05:41.114Z,46.77
2023-04-08T06:08:14.351Z,46.67
2023-04-08T06:10:50.458Z,46.15
2023-04-08T06:13:26.078Z,46.59
2023-04-08T06:15:58.642Z,46.26
2023-04-08T06:18:31.830Z,46.76
2023-04-08T06:21:06.542Z,46.30
2023-04-08T06:23:40.017Z,46.26
2023-04-08T06:26:13.695Z,46.05
2023-04-08T06:28:46.851Z,45.98
2023-04-08T06:31:19.717Z,45.85
2023-04-08T06:33:53.234Z,44.78
2023-04-08T06:36:28.795Z,44.75
2023-04-08T06:39:01.809Z,44.68
2023-04-08T06:41:34.425Z,44.66
2023-04-08T06:44:21.356Z,44.38
2023-04-08T06:46:59.463Z,44.00
2023-04-08T06:49:32.762Z,43.87
2023-04-08T06:52:07.291Z,43.90
2023-04-08T06:54:40.197Z,43.81
2023-04-08T06:57:12.740Z,43.72
2023-04-08T06:59:45.560Z,43.40
2023-04-08T07:02:18.302Z,42.78
2023-04-08T07:04:51.834Z,42.93
2023-04-08T07:07:26.358Z,42.45
2023-04-08T07:09:59.365Z,42.74
2023-04-08T07:12:32.027Z,42.12
2023-04-08T07:15:05.700Z,42.39
2023-04-08T07:17:38.482Z,42.01
2023-04-08T07:20:12.386Z,41.52
2023-04-08T07:22:46.637Z,41.61
2023-04-08T07:25:19.553Z,41.97
2023-04-08T07:27:53.418Z,42.42
2023-04-08T07:30:25.963Z,42.18
2023-04-08T07:33:00.712Z,41.86
2023-04-08T07:35:34.497Z,41.17
2023-04-08T07:38:11.737Z,41.11
2023-04-08T07:40:44.587Z,41.11
2023-04-08T07:43:18.307Z,41.55
2023-04-08T07:45:51.453Z,40.73
2023-04-08T07:48:24.482Z,40.68
2023-04-08T07:51:08.846Z,40.35
2023-04-08T07:53:45.080Z,40.02
2023-04-08T07:56:18.724Z,40.38
2023-04-08T07:58:53.679Z,39.86
2023-04-08T08:01:28.203Z,40.02
2023-04-08T08:04:04.375Z,39.40
2023-04-08T08:06:36.982Z,38.63
2023-04-08T08:09:12.765Z,38.63
2023-04-08T08:11:45.579Z,38.49
2023-04-08T08:14:18.591Z,38.93
2023-04-08T08:16:51.438Z,38.61
2023-04-08T08:19:24.338Z,38.59
2023-04-08T08:21:57.115Z,38.69
2023-04-08T08:24:31.629Z,38.69
2023-04-08T08:27:06.143Z,38.72
2023-04-08T08:29:39.177Z,38.58
2023-04-08T08:32:12.721Z,38.08
2023-04-08T08:34:45.844Z,38.84
2023-04-08T08:37:18.635Z,38.63
2023-04-08T08:39:53.512Z,38.56
2023-04-08T08:42:26.523Z,38.02
2023-04-08T08:45:04.895Z,38.62
2023-04-08T08:47:37.799Z,38.31
2023-04-08T08:50:11.158Z,37.85
2023-04-08T08:52:49.043Z,37.88
2023-04-08T08:57:58.736Z,38.50
2023-04-08T09:00:34.462Z,38.72
2023-04-08T09:03:18.090Z,39.35
2023-04-08T09:05:52.954Z,38.64
2023-04-08T09:08:30.923Z,38.07
2023-04-08T09:11:16.465Z,38.06
2023-04-08T09:13:49.585Z,37.71
2023-04-08T09:16:23.799Z,37.84
2023-04-08T09:19:08.633Z,37.72
2023-04-08T09:21:41.611Z,37.52
2023-04-08T09:24:29.531Z,37.27
2023-04-08T09:27:03.788Z,37.67
2023-04-08T09:29:39.801Z,37.47
2023-04-08T09:32:12.884Z,37.68
2023-04-08T09:34:46.507Z,37.03
2023-04-08T09:37:19.648Z,37.38
2023-04-08T09:39:52.123Z,37.02
2023-04-08T09:42:27.111Z,37.42
2023-04-08T09:45:02.111Z,36.61
2023-04-08T09:47:44.994Z,37.40
2023-04-08T09:50:20.373Z,36.97
2023-04-08T09:52:57.728Z,36.51
2023-04-08T09:55:36.485Z,36.23
2023-04-08T09:58:19.725Z,36.14
2023-04-08T10:00:54.632Z,36.09
2023-04-08T10:03:30.158Z,36.47
2023-04-08T10:06:03.855Z,36.94
2023-04-08T10:08:36.635Z,37.27
2023-04-08T10:11:09.825Z,36.75
2023-04-08T10:13:48.472Z,36.35
2023-04-08T10:16:27.621Z,37.03
2023-04-08T10:19:00.393Z,37.21
2023-04-08T10:21:42.789Z,36.50
2023-04-08T10:24:26.454Z,36.57
2023-04-08T10:26:59.241Z,36.85
2023-04-08T10:29:34.211Z,36.18
2023-04-08T10:32:07.154Z,36.09
2023-04-08T10:34:53.665Z,36.90
2023-04-08T10:37:26.550Z,36.29
2023-04-08T10:39:59.426Z,35.96
2023-04-08T10:42:32.000Z,36.34
2023-04-08T10:45:07.953Z,35.58
2023-04-08T10:47:40.908Z,35.54
2023-04-08T10:50:14.764Z,35.53
2023-04-08T10:52:47.943Z,35.80
2023-04-08T10:55:24.601Z,35.69
2023-04-08T10:58:06.640Z,35.04
2023-04-08T11:00:41.233Z,35.57
2023-04-08T11:03:15.661Z,35.40
2023-04-08T11:05:50.502Z,35.50
2023-04-08T11:08:29.287Z,35.91
2023-04-08T11:11:02.804Z,36.12
2023-04-08T11:13:37.112Z,36.16
2023-04-08T11:16:18.048Z,36.07
2023-04-08T11:18:52.081Z,35.66
2023-04-08T11:21:26.051Z,35.94
2023-04-08T11:23:59.415Z,35.67
2023-04-08T11:26:32.325Z,35.90
2023-04-08T11:29:06.902Z,34.97
2023-04-08T11:31:41.625Z,35.38
2023-04-08T11:34:23.958Z,34.83
2023-04-08T11:36:58.751Z,34.13
2023-04-08T11:39:32.341Z,34.41
2023-04-08T11:42:05.128Z,34.47
2023-04-08T11:44:38.230Z,35.03
2023-04-08T11:47:13.085Z,34.53
2023-04-08T11:49:46.392Z,34.41
2023-04-08T11:52:19.260Z,35.11
2023-04-08T11:54:51.819Z,34.49
2023-04-08T11:57:30.435Z,34.05
2023-04-08T12:00:03.505Z,34.39
2023-04-08T12:02:45.522Z,34.55
2023-04-08T12:05:18.216Z,34.85
2023-04-08T12:07:51.166Z,35.04
2023-04-08T12:10:25.410Z,34.59
2023-04-08T12:12:58.082Z,34.14
2023-04-08T12:15:31.462Z,34.93
2023-04-08T12:18:06.480Z,33.88
2023-04-08T12:20:39.701Z,34.36
2023-04-08T12:23:12.664Z,35.45
2023-04-08T12:25:45.578Z,34.20
2023-04-08T12:28:19.152Z,33.95
2023-04-08T12:30:52.093Z,34.24
2023-04-08T12:33:26.703Z,34.02
2023-04-08T12:35:59.624Z,33.65
2023-04-08T12:38:32.474Z,34.12
2023-04-08T12:41:05.590Z,33.61
2023-04-08T12:43:39.328Z,33.46
2023-04-08T12:46:13.021Z,32.98
2023-04-08T12:48:48.696Z,33.41
2023-04-08T12:51:22.342Z,32.93
2023-04-08T12:53:54.966Z,32.69
2023-04-08T12:56:27.916Z,32.57
2023-04-08T12:59:04.345Z,32.28
2023-04-08T13:01:37.472Z,32.44
2023-04-08T13:04:12.210Z,32.01
2023-04-08T13:06:44.708Z,31.91
2023-04-08T13:09:18.681Z,32.50
2023-04-08T13:11:51.561Z,32.34
2023-04-08T13:14:24.726Z,32.44
2023-04-08T13:16:57.343Z,32.33
2023-04-08T13:19:32.320Z,32.30
2023-04-08T13:22:04.911Z,32.21
2023-04-08T13:24:39.655Z,32.42
2023-04-08T13:27:12.512Z,31.93
2023-04-08T13:29:45.493Z,32.49
2023-04-08T13:32:18.183Z,32.32
2023-04-08T13:34:52.496Z,33.21
2023-04-08T13:37:31.342Z,33.06
2023-04-08T13:40:05.376Z,32.82
2023-04-08T13:42:38.396Z,32.50
2023-04-08T13:45:11.563Z,33.55
2023-04-08T13:47:44.192Z,33.22
2023-04-08T13:50:18.970Z,33.77
2023-04-08T13:52:51.639Z,33.52
2023-04-08T13:55:24.517Z,33.79
2023-04-08T13:57:56.969Z,33.07
2023-04-08T14:00:30.270Z,33.93
2023-04-08T14:03:02.832Z,33.78
2023-04-08T14:05:37.513Z,34.13
2023-04-08T14:08:10.020Z,34.36
2023-04-08T14:10:44.218Z,34.10
2023-04-08T14:13:17.170Z,34.10
2023-04-08T14:15:50.141Z,34.01
2023-04-08T14:18:22.966Z,33.89
2023-04-08T14:20:57.316Z,33.60
2023-04-08T14:23:32.863Z,34.31
2023-04-08T14:26:05.826Z,34.28
2023-04-08T14:28:38.768Z,34.84
2023-04-08T14:31:12.952Z,35.20
2023-04-08T14:33:45.599Z,35.19
2023-04-08T14:36:21.226Z,35.13
2023-04-08T14:38:53.983Z,35.43
2023-04-08T14:41:29.854Z,34.86
2023-04-08T14:44:02.985Z,35.38
2023-04-08T14:46:36.048Z,35.69
2023-04-08T14:49:09.335Z,35.90
2023-04-08T14:51:44.406Z,34.97
2023-04-08T14:54:19.464Z,35.91
2023-04-08T14:56:52.093Z,36.00
2023-04-08T14:59:25.291Z,35.62
2023-04-08T15:01:57.734Z,35.89
2023-04-08T15:04:31.075Z,36.16
2023-04-08T15:07:05.494Z,36.42
2023-04-08T15:09:38.893Z,36.17
2023-04-08T15:12:13.199Z,35.77
2023-04-08T15:14:46.582Z,36.27
2023-04-08T15:17:19.527Z,35.88
2023-04-08T15:19:52.389Z,36.47
2023-04-08T15:22:27.249Z,36.29
2023-04-08T15:25:01.454Z,36.63
2023-04-08T15:27:36.301Z,36.13
2023-04-08T15:30:11.284Z,36.70
2023-04-08T15:32:44.997Z,37.78
2023-04-08T15:35:17.978Z,38.00
2023-04-08T15:37:52.193Z,38.38
2023-04-08T15:40:26.402Z,38.28
2023-04-08T15:42:59.277Z,38.27
2023-04-08T15:45:33.068Z,38.05
2023-04-08T15:48:06.044Z,37.94
2023-04-08T15:50:39.686Z,38.02
2023-04-08T15:53:13.650Z,38.44
2023-04-08T15:55:46.483Z,38.32
2023-04-08T15:58:19.212Z,38.96
2023-04-08T16:00:52.544Z,38.57
2023-04-08T16:03:26.979Z,38.64
2023-04-08T16:06:00.004Z,38.95
2023-04-08T16:08:34.928Z,38.62
2023-04-08T16:11:09.258Z,38.86
2023-04-08T16:13:42.718Z,39.33
2023-04-08T16:16:18.247Z,39.22
2023-04-08T16:18:53.789Z,39.13
2023-04-08T16:21:28.150Z,39.09
2023-04-08T16:24:02.377Z,39.54
2023-04-08T16:26:35.800Z,39.83
2023-04-08T16:29:08.600Z,39.58
2023-04-08T16:31:41.478Z,40.00
2023-04-08T16:34:14.226Z,40.23
2023-04-08T16:36:47.817Z,40.42
2023-04-08T16:39:22.004Z,40.19
2023-04-08T16:41:55.511Z,40.78
2023-04-08T16:44:29.558Z,40.50
2023-04-08T16:47:06.077Z,41.32
2023-04-08T16:49:38.793Z,41.02
2023-04-08T16:52:15.335Z,41.31
2023-04-08T16:54:53.558Z,41.93
2023-04-08T16:57:28.730Z,42.00
2023-04-08T17:00:03.362Z,41.81
2023-04-08T17:02:38.286Z,41.94
2023-04-08T17:05:12.869Z,41.90
2023-04-08T17:07:45.797Z,42.24
2023-04-08T17:10:24.869Z,42.82
2023-04-08T17:13:00.494Z,42.34
2023-04-08T17:15:36.780Z,43.26
2023-04-08T17:18:10.176Z,43.09
2023-04-08T17:20:44.945Z,43.58
2023-04-08T17:23:18.232Z,44.55
2023-04-08T17:25:54.374Z,44.32
2023-04-08T17:28:29.562Z,44.93
2023-04-08T17:31:04.723Z,45.01
2023-04-08T17:33:38.841Z,44.83
2023-04-08T17:36:19.489Z,45.37
2023-04-08T17:38:53.250Z,45.29
2023-04-08T17:41:40.535Z,45.45
2023-04-08T17:44:17.449Z,45.61
2023-04-08T17:46:53.812Z,46.30
2023-04-08T17:49:29.069Z,46.02
2023-04-08T17:52:04.437Z,46.48
2023-04-08T17:54:40.973Z,46.99
2023-04-08T17:57:25.308Z,47.12
2023-04-08T17:59:58.249Z,47.50
2023-04-08T18:02:32.075Z,47.78
2023-04-08T18:05:08.311Z,48.10
2023-04-08T18:07:45.915Z,48.26
2023-04-08T18:10:19.911Z,48.58
2023-04-08T18:13:11.814Z,49.01
2023-04-08T18:15:45.586Z,48.60
2023-04-08T18:18:27.542Z,48.92
2023-04-08T18:21:04.276Z,48.79
2023-04-08T18:23:49.068Z,49.41
2023-04-08T18:26:23.046Z,49.33
2023-04-08T18:29:04.114Z,49.46
2023-04-08T18:31:41.940Z,49.05
2023-04-08T18:34:18.716Z,49.21
2023-04-08T18:36:55.529Z,49.64
2023-04-08T18:39:31.017Z,49.72
2023-04-08T18:42:05.282Z,50.34
2023-04-08T18:44:49.883Z,50.39
2023-04-08T18:47:31.006Z,50.82
2023-04-08T18:50:11.653Z,50.70
2023-04-08T18:52:50.864Z,50.91
2023-04-08T18:55:36.529Z,51.25
2023-04-08T18:58:11.625Z,51.30
2023-04-08T19:00:47.953Z,51.51
2023-04-08T19:03:23.814Z,51.67
2023-04-08T19:06:01.487Z,51.97
2023-04-08T19:08:40.027Z,52.12
2023-04-08T19:11:16.347Z,52.36
2023-04-08T19:13:54.170Z,52.40
2023-04-08T19:16:33.218Z,52.97
2023-04-08T19:19:08.807Z,53.39
2023-04-08T19:21:48.649Z,53.49
2023-04-08T19:24:29.343Z,53.65
2023-04-08T19:27:05.487Z,53.65
2023-04-08T19:29:40.249Z,53.93
2023-04-08T19:32:17.771Z,53.94
2023-04-08T19:34:51.120Z,54.20
2023-04-08T19:37:30.535Z,54.21
2023-04-08T19:40:08.085Z,54.42
2023-04-08T19:42:46.629Z,54.65
2023-04-08T19:45:20.461Z,54.76
2023-04-08T19:47:56.008Z,54.68
2023-04-08T19:50:35.195Z,54.60
2023-04-08T19:53:14.671Z,55.06
2023-04-08T19:55:49.130Z,55.55
2023-04-08T19:58:23.588Z,55.71
2023-04-08T20:01:04.170Z,55.30
2023-04-08T20:03:54.263Z,55.83
2023-04-08T20:06:31.142Z,55.96
2023-04-08T20:09:07.729Z,55.76
2023-04-08T20:11:42.160Z,55.94
2023-04-08T20:14:21.773Z,55.95
2023-04-08T20:16:58.221Z,56.11
2023-04-08T20:19:32.814Z,56.40
2023-04-08T20:22:07.063Z,57.01
2023-04-08T20:24:39.898Z,56.86
2023-04-08T20:27:14.326Z,56.76
2023-04-08T20:29:49.034Z,56.94
2023-04-08T20:32:24.002Z,57.64
2023-04-08T20:34:59.877Z,57.72
2023-04-08T20:37:33.570Z,57.26
2023-04-08T20:40:09.370Z,57.36
2023-04-08T20:42:42.635Z,57.94
2023-04-08T20:45:26.314Z,57.65
2023-04-08T20:47:59.935Z,57.79
2023-04-08T20:50:37.107Z,57.94
2023-04-08T20:53:11.383Z,57.84
2023-04-08T20:55:44.143Z,58.48
2023-04-08T20:58:19.980Z,58.40
2023-04-08T21:00:52.456Z,58.17
2023-04-08T21:03:25.757Z,58.00
2023-04-08T21:06:01.162Z,58.38
2023-04-08T21:08:34.761Z,58.42
2023-04-08T21:11:08.205Z,58.61
2023-04-08T21:13:40.867Z,58.69
2023-04-08T21:16:13.853Z,58.59
2023-04-08T21:18:46.901Z,59.04
2023-04-08T21:21:21.295Z,59.29
2023-04-08T21:23:53.969Z,59.17
2023-04-08T21:26:27.703Z,59.51
2023-04-08T21:29:00.141Z,59.39
2023-04-08T21:31:33.401Z,59.25
2023-04-08T21:34:06.227Z,59.38
2023-04-08T21:36:40.787Z,59.15
2023-04-08T21:39:13.463Z,60.13
2023-04-08T21:41:46.831Z,59.56
2023-04-08T21:44:22.610Z,59.50
2023-04-08T21:46:55.674Z,59.76
2023-04-08T21:49:29.842Z,60.77
2023-04-08T21:52:05.402Z,59.94
2023-04-08T21:54:38.047Z,60.46
2023-04-08T21:57:11.577Z,60.65
2023-04-08T21:59:44.174Z,60.49
2023-04-08T22:02:17.333Z,60.39
2023-04-08T22:04:49.853Z,60.51
2023-04-08T22:07:24.414Z,61.15
2023-04-08T22:09:56.840Z,60.67
2023-04-08T22:12:31.118Z,60.61
2023-04-08T22:15:04.454Z,60.80
2023-04-08T22:17:37.249Z,61.15
2023-04-08T22:20:11.295Z,61.12
2023-04-08T22:22:45.520Z,61.14
2023-04-08T22:25:19.081Z,62.02
2023-04-08T22:27:52.301Z,61.85
2023-04-08T22:30:24.672Z,61.91
2023-04-08T22:32:57.582Z,62.26
2023-04-08T22:35:29.981Z,61.71
2023-04-08T22:38:04.548Z,61.94
2023-04-08T22:40:36.956Z,62.38
2023-04-08T22:43:11.585Z,61.65
2023-04-08T22:45:44.255Z,61.20
2023-04-08T22:48:17.301Z,61.72
2023-04-08T22:50:50.368Z,61.96
2023-04-08T22:53:25.019Z,62.36
2023-04-08T22:55:58.154Z,61.92
2023-04-08T22:58:31.467Z,61.98
2023-04-08T23:01:11.494Z,62.42
2023-04-08T23:03:44.913Z,62.72
2023-04-08T23:06:17.360Z,62.50
2023-04-08T23:08:51.736Z,62.51
2023-04-08T23:11:24.548Z,62.23
2023-04-08T23:13:57.523Z,62.38
2023-04-08T23:16:30.972Z,62.24
2023-04-08T23:19:04.092Z,62.15
2023-04-08T23:21:36.700Z,62.71
2023-04-08T23:24:10.962Z,62.90
2023-04-08T23:26:43.466Z,62.77
2023-04-08T23:29:16.654Z,62.74
2023-04-08T23:31:49.354Z,63.93
2023-04-08T23:34:21.792Z,63.02
2023-04-08T23:36:54.709Z,63.59
2023-04-08T23:39:28.466Z,63.44
2023-04-08T23:42:01.945Z,63.48
2023-04-08T23:44:34.731Z,63.19
2023-04-08T23:47:07.590Z,63.96
2023-04-08T23:49:40.349Z,63.95
2023-04-08T23:52:13.430Z,63.57
2023-04-08T23:54:51.751Z,62.57
2023-04-08T23:57:24.536Z,62.49
2023-04-08T23:59:57.707Z,62.91
